sensor_id;sensor_type;location;lat;lon;timestamp;temperature;humidity
54192;DHT22;40101;53.002;6.488;2022-08-02T00:00:10;13.00;99.90
54192;DHT22;40101;53.002;6.488;2022-08-02T00:02:37;13.00;99.90
54192;DHT22;40101;53.002;6.488;2022-08-02T00:05:04;13.10;99.90
54192;DHT22;40101;53.002;6.488;2022-08-02T00:07:29;13.10;99.90
54192;DHT22;40101;53.002;6.488;2022-08-02T00:09:55;13.10;99.90
54192;DHT22;40101;53.002;6.488;2022-08-02T00:12:21;13.20;99.90
54192;DHT22;40101;53.002;6.488;2022-08-02T00:14:46;13.20;99.90
54192;DHT22;40101;53.002;6.488;2022-08-02T00:17:12;13.20;99.90
54192;DHT22;40101;53.002;6.488;2022-08-02T00:19:38;13.20;99.90
54192;DHT22;40101;53.002;6.488;2022-08-02T00:22:03;13.20;99.90
54192;DHT22;40101;53.002;6.488;2022-08-02T00:24:29;13.20;99.90
54192;DHT22;40101;53.002;6.488;2022-08-02T00:26:55;13.20;99.90
54192;DHT22;40101;53.002;6.488;2022-08-02T00:29:20;13.20;99.90
54192;DHT22;40101;53.002;6.488;2022-08-02T00:31:46;13.10;99.90
54192;DHT22;40101;53.002;6.488;2022-08-02T00:34:11;13.10;99.90
54192;DHT22;40101;53.002;6.488;2022-08-02T00:36:37;13.10;99.90
54192;DHT22;40101;53.002;6.488;2022-08-02T00:39:03;13.10;99.90
54192;DHT22;40101;53.002;6.488;2022-08-02T00:41:28;13.00;99.90
54192;DHT22;40101;53.002;6.488;2022-08-02T00:43:54;13.10;99.90
54192;DHT22;40101;53.002;6.488;2022-08-02T00:46:19;13.00;99.90
54192;DHT22;40101;53.002;6.488;2022-08-02T00:48:46;13.00;99.90
54192;DHT22;40101;53.002;6.488;2022-08-02T00:51:12;13.00;99.90
54192;DHT22;40101;53.002;6.488;2022-08-02T00:53:38;13.00;99.90
54192;DHT22;40101;53.002;6.488;2022-08-02T00:56:04;12.90;99.90
54192;DHT22;40101;53.002;6.488;2022-08-02T00:58:30;12.90;99.90
54192;DHT22;40101;53.002;6.488;2022-08-02T01:00:55;12.90;99.90
54192;DHT22;40101;53.002;6.488;2022-08-02T01:03:25;12.80;99.90
54192;DHT22;40101;53.002;6.488;2022-08-02T01:05:50;12.70;99.90
54192;DHT22;40101;53.002;6.488;2022-08-02T01:08:16;12.80;99.90
54192;DHT22;40101;53.002;6.488;2022-08-02T01:10:42;12.70;99.90
54192;DHT22;40101;53.002;6.488;2022-08-02T01:13:08;12.70;99.90
54192;DHT22;40101;53.002;6.488;2022-08-02T01:15:39;12.70;99.90
54192;DHT22;40101;53.002;6.488;2022-08-02T01:18:09;12.60;99.90
54192;DHT22;40101;53.002;6.488;2022-08-02T01:21:09;12.60;99.90
54192;DHT22;40101;53.002;6.488;2022-08-02T01:29:28;12.50;99.90
54192;DHT22;40101;53.002;6.488;2022-08-02T01:32:18;12.50;99.90
54192;DHT22;40101;53.002;6.488;2022-08-02T01:34:53;12.50;99.90
54192;DHT22;40101;53.002;6.488;2022-08-02T01:37:21;12.50;99.90
54192;DHT22;40101;53.002;6.488;2022-08-02T01:40:05;12.50;99.90
54192;DHT22;40101;53.002;6.488;2022-08-02T01:42:33;12.40;99.90
54192;DHT22;40101;53.002;6.488;2022-08-02T01:45:01;12.50;99.90
54192;DHT22;40101;53.002;6.488;2022-08-02T01:47:30;12.40;99.90
54192;DHT22;40101;53.002;6.488;2022-08-02T01:49:58;12.40;99.90
54192;DHT22;40101;53.002;6.488;2022-08-02T01:52:28;12.30;99.90
54192;DHT22;40101;53.002;6.488;2022-08-02T01:55:12;12.30;99.90
54192;DHT22;40101;53.002;6.488;2022-08-02T01:57:48;12.30;99.90
54192;DHT22;40101;53.002;6.488;2022-08-02T02:00:15;12.30;99.90
54192;DHT22;40101;53.002;6.488;2022-08-02T02:02:42;12.30;99.90
54192;DHT22;40101;53.002;6.488;2022-08-02T02:05:19;12.30;99.90
54192;DHT22;40101;53.002;6.488;2022-08-02T02:07:48;12.30;99.90
54192;DHT22;40101;53.002;6.488;2022-08-02T02:10:18;12.20;99.90
54192;DHT22;40101;53.002;6.488;2022-08-02T02:12:49;12.20;99.90
54192;DHT22;40101;53.002;6.488;2022-08-02T02:15:16;12.30;99.90
54192;DHT22;40101;53.002;6.488;2022-08-02T02:17:45;12.30;99.90
54192;DHT22;40101;53.002;6.488;2022-08-02T02:20:16;12.30;99.90
54192;DHT22;40101;53.002;6.488;2022-08-02T02:22:42;12.30;99.90
54192;DHT22;40101;53.002;6.488;2022-08-02T02:25:09;12.30;99.90
54192;DHT22;40101;53.002;6.488;2022-08-02T02:27:36;12.30;99.90
54192;DHT22;40101;53.002;6.488;2022-08-02T02:30:04;12.30;99.90
54192;DHT22;40101;53.002;6.488;2022-08-02T02:32:31;12.30;99.90
54192;DHT22;40101;53.002;6.488;2022-08-02T02:34:58;12.30;99.90
54192;DHT22;40101;53.002;6.488;2022-08-02T02:37:26;12.30;99.90
54192;DHT22;40101;53.002;6.488;2022-08-02T02:39:54;12.30;99.90
54192;DHT22;40101;53.002;6.488;2022-08-02T02:42:26;12.30;99.90
54192;DHT22;40101;53.002;6.488;2022-08-02T02:44:53;12.20;99.90
54192;DHT22;40101;53.002;6.488;2022-08-02T02:47:19;12.20;99.90
54192;DHT22;40101;53.002;6.488;2022-08-02T02:49:47;12.30;99.90
54192;DHT22;40101;53.002;6.488;2022-08-02T02:52:16;12.20;99.90
54192;DHT22;40101;53.002;6.488;2022-08-02T02:54:44;12.30;99.90
54192;DHT22;40101;53.002;6.488;2022-08-02T02:57:12;12.30;99.90
54192;DHT22;40101;53.002;6.488;2022-08-02T02:59:38;12.30;99.90
54192;DHT22;40101;53.002;6.488;2022-08-02T03:02:05;12.30;99.90
54192;DHT22;40101;53.002;6.488;2022-08-02T03:04:32;12.30;99.90
54192;DHT22;40101;53.002;6.488;2022-08-02T03:06:59;12.30;99.90
54192;DHT22;40101;53.002;6.488;2022-08-02T03:09:25;12.30;99.90
54192;DHT22;40101;53.002;6.488;2022-08-02T03:11:53;12.30;99.90
54192;DHT22;40101;53.002;6.488;2022-08-02T03:14:20;12.40;99.90
54192;DHT22;40101;53.002;6.488;2022-08-02T03:16:50;12.40;99.90
54192;DHT22;40101;53.002;6.488;2022-08-02T03:19:16;12.40;99.90
54192;DHT22;40101;53.002;6.488;2022-08-02T03:21:43;12.40;99.90
54192;DHT22;40101;53.002;6.488;2022-08-02T03:24:09;12.40;99.90
54192;DHT22;40101;53.002;6.488;2022-08-02T03:26:35;12.50;99.90
54192;DHT22;40101;53.002;6.488;2022-08-02T03:29:01;12.40;99.90
54192;DHT22;40101;53.002;6.488;2022-08-02T03:31:27;12.50;99.90
54192;DHT22;40101;53.002;6.488;2022-08-02T03:33:54;12.40;99.90
54192;DHT22;40101;53.002;6.488;2022-08-02T03:36:22;12.40;99.90
54192;DHT22;40101;53.002;6.488;2022-08-02T03:38:49;12.40;99.90
54192;DHT22;40101;53.002;6.488;2022-08-02T03:41:17;12.40;99.90
54192;DHT22;40101;53.002;6.488;2022-08-02T03:43:44;12.40;99.90
54192;DHT22;40101;53.002;6.488;2022-08-02T03:46:13;12.40;99.90
54192;DHT22;40101;53.002;6.488;2022-08-02T03:48:40;12.40;99.90
54192;DHT22;40101;53.002;6.488;2022-08-02T03:51:06;12.50;99.90
54192;DHT22;40101;53.002;6.488;2022-08-02T03:53:32;12.50;99.90
54192;DHT22;40101;53.002;6.488;2022-08-02T03:55:59;12.50;99.90
54192;DHT22;40101;53.002;6.488;2022-08-02T03:58:25;12.50;99.90
54192;DHT22;40101;53.002;6.488;2022-08-02T04:00:52;12.50;99.90
54192;DHT22;40101;53.002;6.488;2022-08-02T04:03:18;12.50;99.90
54192;DHT22;40101;53.002;6.488;2022-08-02T04:05:44;12.50;99.90
54192;DHT22;40101;53.002;6.488;2022-08-02T04:08:09;12.50;99.90
54192;DHT22;40101;53.002;6.488;2022-08-02T04:10:35;12.50;99.90
54192;DHT22;40101;53.002;6.488;2022-08-02T04:13:22;12.50;99.90
54192;DHT22;40101;53.002;6.488;2022-08-02T04:15:50;12.50;99.90
54192;DHT22;40101;53.002;6.488;2022-08-02T04:18:19;12.50;99.90
54192;DHT22;40101;53.002;6.488;2022-08-02T04:20:48;12.60;99.90
54192;DHT22;40101;53.002;6.488;2022-08-02T04:23:14;12.60;99.90
54192;DHT22;40101;53.002;6.488;2022-08-02T04:25:42;12.70;99.90
54192;DHT22;40101;53.002;6.488;2022-08-02T04:28:09;12.70;99.90
54192;DHT22;40101;53.002;6.488;2022-08-02T04:30:36;12.70;99.90
54192;DHT22;40101;53.002;6.488;2022-08-02T04:33:02;12.80;99.90
54192;DHT22;40101;53.002;6.488;2022-08-02T04:35:28;12.80;99.90
54192;DHT22;40101;53.002;6.488;2022-08-02T04:37:54;12.90;99.90
54192;DHT22;40101;53.002;6.488;2022-08-02T04:40:20;12.90;99.90
54192;DHT22;40101;53.002;6.488;2022-08-02T04:42:46;12.90;99.90
54192;DHT22;40101;53.002;6.488;2022-08-02T04:45:12;13.10;99.90
54192;DHT22;40101;53.002;6.488;2022-08-02T04:47:37;13.10;99.90
54192;DHT22;40101;53.002;6.488;2022-08-02T04:50:04;13.10;99.90
54192;DHT22;40101;53.002;6.488;2022-08-02T04:52:29;13.20;99.90
54192;DHT22;40101;53.002;6.488;2022-08-02T04:54:55;13.20;99.90
54192;DHT22;40101;53.002;6.488;2022-08-02T04:57:21;13.30;99.90
54192;DHT22;40101;53.002;6.488;2022-08-02T05:00:07;13.30;99.90
54192;DHT22;40101;53.002;6.488;2022-08-02T05:02:33;13.40;99.90
54192;DHT22;40101;53.002;6.488;2022-08-02T05:04:59;13.50;99.90
54192;DHT22;40101;53.002;6.488;2022-08-02T05:07:25;13.60;99.90
54192;DHT22;40101;53.002;6.488;2022-08-02T05:09:50;13.60;99.90
54192;DHT22;40101;53.002;6.488;2022-08-02T05:12:16;13.70;99.90
54192;DHT22;40101;53.002;6.488;2022-08-02T05:14:42;13.70;99.90
54192;DHT22;40101;53.002;6.488;2022-08-02T05:17:07;13.80;99.90
54192;DHT22;40101;53.002;6.488;2022-08-02T05:19:33;13.90;99.90
54192;DHT22;40101;53.002;6.488;2022-08-02T05:21:58;13.90;99.90
54192;DHT22;40101;53.002;6.488;2022-08-02T05:24:24;14.00;99.90
54192;DHT22;40101;53.002;6.488;2022-08-02T05:26:50;14.50;99.90
54192;DHT22;40101;53.002;6.488;2022-08-02T05:29:16;15.60;99.90
54192;DHT22;40101;53.002;6.488;2022-08-02T05:31:41;16.70;99.90
54192;DHT22;40101;53.002;6.488;2022-08-02T05:34:07;17.70;99.90
54192;DHT22;40101;53.002;6.488;2022-08-02T05:36:33;18.50;99.90
54192;DHT22;40101;53.002;6.488;2022-08-02T05:38:58;19.30;99.90
54192;DHT22;40101;53.002;6.488;2022-08-02T05:41:24;20.00;99.90
54192;DHT22;40101;53.002;6.488;2022-08-02T05:43:49;20.60;99.90
54192;DHT22;40101;53.002;6.488;2022-08-02T05:46:15;21.10;99.90
54192;DHT22;40101;53.002;6.488;2022-08-02T05:48:41;21.40;99.90
54192;DHT22;40101;53.002;6.488;2022-08-02T05:51:12;21.60;99.90
54192;DHT22;40101;53.002;6.488;2022-08-02T05:53:50;21.90;99.90
54192;DHT22;40101;53.002;6.488;2022-08-02T05:56:32;22.20;99.90
54192;DHT22;40101;53.002;6.488;2022-08-02T05:59:11;22.40;99.90
54192;DHT22;40101;53.002;6.488;2022-08-02T06:01:38;22.40;99.90
54192;DHT22;40101;53.002;6.488;2022-08-02T06:04:09;22.70;99.90
54192;DHT22;40101;53.002;6.488;2022-08-02T06:06:37;23.10;99.90
54192;DHT22;40101;53.002;6.488;2022-08-02T06:09:10;23.50;99.90
54192;DHT22;40101;53.002;6.488;2022-08-02T06:11:44;23.70;99.90
54192;DHT22;40101;53.002;6.488;2022-08-02T06:14:10;23.90;99.90
54192;DHT22;40101;53.002;6.488;2022-08-02T06:16:38;24.40;99.90
54192;DHT22;40101;53.002;6.488;2022-08-02T06:19:04;24.40;99.80
54192;DHT22;40101;53.002;6.488;2022-08-02T06:21:31;24.40;99.40
54192;DHT22;40101;53.002;6.488;2022-08-02T06:23:57;24.50;98.90
54192;DHT22;40101;53.002;6.488;2022-08-02T06:26:24;24.60;98.50
54192;DHT22;40101;53.002;6.488;2022-08-02T06:28:52;25.00;97.80
54192;DHT22;40101;53.002;6.488;2022-08-02T06:31:18;24.90;96.60
54192;DHT22;40101;53.002;6.488;2022-08-02T06:33:45;24.50;96.70
54192;DHT22;40101;53.002;6.488;2022-08-02T06:36:39;23.90;98.40
54192;DHT22;40101;53.002;6.488;2022-08-02T06:39:19;23.20;99.20
54192;DHT22;40101;53.002;6.488;2022-08-02T06:41:48;22.30;99.90
54192;DHT22;40101;53.002;6.488;2022-08-02T06:44:16;22.20;99.90
54192;DHT22;40101;53.002;6.488;2022-08-02T06:46:42;22.00;99.90
54192;DHT22;40101;53.002;6.488;2022-08-02T06:49:08;21.60;99.90
54192;DHT22;40101;53.002;6.488;2022-08-02T06:51:33;21.30;99.90
54192;DHT22;40101;53.002;6.488;2022-08-02T06:53:59;21.10;99.90
54192;DHT22;40101;53.002;6.488;2022-08-02T06:56:25;21.20;99.90
54192;DHT22;40101;53.002;6.488;2022-08-02T06:58:50;21.40;99.90
54192;DHT22;40101;53.002;6.488;2022-08-02T07:01:18;21.40;99.90
54192;DHT22;40101;53.002;6.488;2022-08-02T07:03:44;21.20;99.90
54192;DHT22;40101;53.002;6.488;2022-08-02T07:06:09;21.10;99.90
54192;DHT22;40101;53.002;6.488;2022-08-02T07:08:36;21.00;99.90
54192;DHT22;40101;53.002;6.488;2022-08-02T07:11:07;21.10;99.90
54192;DHT22;40101;53.002;6.488;2022-08-02T07:13:33;21.50;99.90
54192;DHT22;40101;53.002;6.488;2022-08-02T07:16:00;22.00;99.90
54192;DHT22;40101;53.002;6.488;2022-08-02T07:18:26;22.50;99.90
54192;DHT22;40101;53.002;6.488;2022-08-02T07:20:52;23.10;99.90
54192;DHT22;40101;53.002;6.488;2022-08-02T07:23:18;23.70;99.90
54192;DHT22;40101;53.002;6.488;2022-08-02T07:25:45;23.80;98.90
54192;DHT22;40101;53.002;6.488;2022-08-02T07:28:11;23.70;98.60
54192;DHT22;40101;53.002;6.488;2022-08-02T07:30:40;23.60;98.30
54192;DHT22;40101;53.002;6.488;2022-08-02T07:33:06;23.80;98.00
54192;DHT22;40101;53.002;6.488;2022-08-02T07:35:32;24.30;97.20
54192;DHT22;40101;53.002;6.488;2022-08-02T07:37:58;25.00;95.00
54192;DHT22;40101;53.002;6.488;2022-08-02T07:40:24;25.50;92.60
54192;DHT22;40101;53.002;6.488;2022-08-02T07:42:52;26.10;90.50
54192;DHT22;40101;53.002;6.488;2022-08-02T07:45:19;26.60;87.60
54192;DHT22;40101;53.002;6.488;2022-08-02T07:47:45;26.70;84.20
54192;DHT22;40101;53.002;6.488;2022-08-02T07:50:12;27.10;83.40
54192;DHT22;40101;53.002;6.488;2022-08-02T07:52:40;27.00;79.00
54192;DHT22;40101;53.002;6.488;2022-08-02T07:55:06;27.20;78.10
54192;DHT22;40101;53.002;6.488;2022-08-02T07:57:32;27.10;77.70
54192;DHT22;40101;53.002;6.488;2022-08-02T07:59:58;27.20;77.50
54192;DHT22;40101;53.002;6.488;2022-08-02T08:02:23;27.50;76.50
54192;DHT22;40101;53.002;6.488;2022-08-02T08:04:50;27.70;75.90
54192;DHT22;40101;53.002;6.488;2022-08-02T08:07:16;28.00;74.60
54192;DHT22;40101;53.002;6.488;2022-08-02T08:09:42;28.40;71.20
54192;DHT22;40101;53.002;6.488;2022-08-02T08:12:10;28.10;70.10
54192;DHT22;40101;53.002;6.488;2022-08-02T08:14:37;28.00;70.00
54192;DHT22;40101;53.002;6.488;2022-08-02T08:17:03;27.90;68.70
54192;DHT22;40101;53.002;6.488;2022-08-02T08:19:29;27.90;69.80
54192;DHT22;40101;53.002;6.488;2022-08-02T08:21:54;27.70;70.10
54192;DHT22;40101;53.002;6.488;2022-08-02T08:24:20;27.80;68.50
54192;DHT22;40101;53.002;6.488;2022-08-02T08:26:46;27.60;67.50
54192;DHT22;40101;53.002;6.488;2022-08-02T08:29:11;27.50;68.60
54192;DHT22;40101;53.002;6.488;2022-08-02T08:31:37;27.50;69.60
54192;DHT22;40101;53.002;6.488;2022-08-02T08:34:03;27.30;68.70
54192;DHT22;40101;53.002;6.488;2022-08-02T08:36:28;27.20;67.80
54192;DHT22;40101;53.002;6.488;2022-08-02T08:38:55;26.90;68.90
54192;DHT22;40101;53.002;6.488;2022-08-02T08:41:21;27.00;69.10
54192;DHT22;40101;53.002;6.488;2022-08-02T08:43:47;27.30;68.50
54192;DHT22;40101;53.002;6.488;2022-08-02T08:46:25;27.60;69.20
54192;DHT22;40101;53.002;6.488;2022-08-02T08:48:55;28.00;67.70
54192;DHT22;40101;53.002;6.488;2022-08-02T08:51:24;28.40;66.00
54192;DHT22;40101;53.002;6.488;2022-08-02T08:53:53;28.20;65.30
54192;DHT22;40101;53.002;6.488;2022-08-02T08:56:22;28.30;66.20
54192;DHT22;40101;53.002;6.488;2022-08-02T08:58:47;28.40;65.50
54192;DHT22;40101;53.002;6.488;2022-08-02T09:01:14;28.70;65.40
54192;DHT22;40101;53.002;6.488;2022-08-02T09:03:42;29.10;65.90
54192;DHT22;40101;53.002;6.488;2022-08-02T09:06:08;29.30;64.10
54192;DHT22;40101;53.002;6.488;2022-08-02T09:08:33;29.40;63.10
54192;DHT22;40101;53.002;6.488;2022-08-02T09:10:59;29.30;61.10
54192;DHT22;40101;53.002;6.488;2022-08-02T09:13:27;29.30;60.60
54192;DHT22;40101;53.002;6.488;2022-08-02T09:16:01;29.40;60.70
54192;DHT22;40101;53.002;6.488;2022-08-02T09:18:32;29.30;60.70
54192;DHT22;40101;53.002;6.488;2022-08-02T09:21:00;29.20;61.30
54192;DHT22;40101;53.002;6.488;2022-08-02T09:23:40;29.30;61.60
54192;DHT22;40101;53.002;6.488;2022-08-02T09:26:10;29.20;61.00
54192;DHT22;40101;53.002;6.488;2022-08-02T09:28:38;29.30;60.90
54192;DHT22;40101;53.002;6.488;2022-08-02T09:31:07;29.30;62.40
54192;DHT22;40101;53.002;6.488;2022-08-02T09:33:34;29.40;61.20
54192;DHT22;40101;53.002;6.488;2022-08-02T09:36:06;29.30;61.30
54192;DHT22;40101;53.002;6.488;2022-08-02T09:38:32;29.30;61.40
54192;DHT22;40101;53.002;6.488;2022-08-02T09:40:59;29.00;62.20
54192;DHT22;40101;53.002;6.488;2022-08-02T09:43:39;28.80;63.20
54192;DHT22;40101;53.002;6.488;2022-08-02T09:46:19;28.40;64.90
54192;DHT22;40101;53.002;6.488;2022-08-02T09:48:54;28.00;66.20
54192;DHT22;40101;53.002;6.488;2022-08-02T09:51:27;27.80;67.30
54192;DHT22;40101;53.002;6.488;2022-08-02T09:53:58;27.80;67.30
54192;DHT22;40101;53.002;6.488;2022-08-02T09:56:25;28.30;67.30
54192;DHT22;40101;53.002;6.488;2022-08-02T09:58:51;28.50;67.80
54192;DHT22;40101;53.002;6.488;2022-08-02T10:01:20;28.90;67.20
54192;DHT22;40101;53.002;6.488;2022-08-02T10:04:00;28.90;68.00
54192;DHT22;40101;53.002;6.488;2022-08-02T10:06:26;29.20;68.30
54192;DHT22;40101;53.002;6.488;2022-08-02T10:08:52;29.40;67.70
54192;DHT22;40101;53.002;6.488;2022-08-02T10:11:22;29.60;66.60
54192;DHT22;40101;53.002;6.488;2022-08-02T10:13:49;29.50;66.60
54192;DHT22;40101;53.002;6.488;2022-08-02T10:16:16;29.20;67.90
54192;DHT22;40101;53.002;6.488;2022-08-02T10:18:44;29.00;68.60
54192;DHT22;40101;53.002;6.488;2022-08-02T10:21:15;29.00;69.20
54192;DHT22;40101;53.002;6.488;2022-08-02T10:23:44;29.00;69.50
54192;DHT22;40101;53.002;6.488;2022-08-02T10:26:15;29.00;69.50
54192;DHT22;40101;53.002;6.488;2022-08-02T10:28:41;29.00;69.60
54192;DHT22;40101;53.002;6.488;2022-08-02T10:31:10;29.10;70.50
54192;DHT22;40101;53.002;6.488;2022-08-02T10:33:37;29.10;70.80
54192;DHT22;40101;53.002;6.488;2022-08-02T10:36:05;29.30;70.50
54192;DHT22;40101;53.002;6.488;2022-08-02T10:38:33;29.30;71.60
54192;DHT22;40101;53.002;6.488;2022-08-02T10:40:59;29.40;70.10
54192;DHT22;40101;53.002;6.488;2022-08-02T10:46:33;29.50;71.00
54192;DHT22;40101;53.002;6.488;2022-08-02T10:54:20;29.30;71.50
54192;DHT22;40101;53.002;6.488;2022-08-02T10:56:50;29.00;70.70
54192;DHT22;40101;53.002;6.488;2022-08-02T11:01:57;28.50;71.20
54192;DHT22;40101;53.002;6.488;2022-08-02T11:07:13;28.30;74.10
54192;DHT22;40101;53.002;6.488;2022-08-02T11:09:43;28.20;73.00
54192;DHT22;40101;53.002;6.488;2022-08-02T11:12:11;28.30;73.10
54192;DHT22;40101;53.002;6.488;2022-08-02T11:14:39;28.10;73.50
54192;DHT22;40101;53.002;6.488;2022-08-02T11:17:11;28.10;73.70
54192;DHT22;40101;53.002;6.488;2022-08-02T11:22:41;28.20;75.20
54192;DHT22;40101;53.002;6.488;2022-08-02T11:27:54;28.10;75.90
54192;DHT22;40101;53.002;6.488;2022-08-02T11:30:20;28.00;76.90
54192;DHT22;40101;53.002;6.488;2022-08-02T11:32:46;28.00;76.90
54192;DHT22;40101;53.002;6.488;2022-08-02T11:35:12;27.90;76.50
54192;DHT22;40101;53.002;6.488;2022-08-02T11:37:40;27.80;77.50
54192;DHT22;40101;53.002;6.488;2022-08-02T11:40:09;27.90;78.50
54192;DHT22;40101;53.002;6.488;2022-08-02T11:42:37;27.90;78.20
54192;DHT22;40101;53.002;6.488;2022-08-02T11:45:07;27.80;79.10
54192;DHT22;40101;53.002;6.488;2022-08-02T11:47:44;27.90;79.20
54192;DHT22;40101;53.002;6.488;2022-08-02T11:50:10;28.00;78.00
54192;DHT22;40101;53.002;6.488;2022-08-02T11:52:37;28.00;77.50
54192;DHT22;40101;53.002;6.488;2022-08-02T11:55:06;28.00;77.20
54192;DHT22;40101;53.002;6.488;2022-08-02T11:57:33;28.00;77.70
54192;DHT22;40101;53.002;6.488;2022-08-02T11:59:59;28.00;77.60
54192;DHT22;40101;53.002;6.488;2022-08-02T12:02:27;28.00;76.90
54192;DHT22;40101;53.002;6.488;2022-08-02T12:04:58;28.00;76.80
54192;DHT22;40101;53.002;6.488;2022-08-02T12:10:02;27.70;78.00
54192;DHT22;40101;53.002;6.488;2022-08-02T12:12:28;27.80;78.80
54192;DHT22;40101;53.002;6.488;2022-08-02T12:14:54;27.80;78.30
54192;DHT22;40101;53.002;6.488;2022-08-02T12:17:23;27.70;77.60
54192;DHT22;40101;53.002;6.488;2022-08-02T12:20:09;27.80;79.20
54192;DHT22;40101;53.002;6.488;2022-08-02T12:22:34;27.80;78.80
54192;DHT22;40101;53.002;6.488;2022-08-02T12:25:19;27.90;79.80
54192;DHT22;40101;53.002;6.488;2022-08-02T12:27:46;27.90;80.80
54192;DHT22;40101;53.002;6.488;2022-08-02T12:30:14;27.90;81.00
54192;DHT22;40101;53.002;6.488;2022-08-02T12:32:41;27.80;81.10
54192;DHT22;40101;53.002;6.488;2022-08-02T12:35:15;27.70;81.40
54192;DHT22;40101;53.002;6.488;2022-08-02T12:37:43;27.60;81.80
54192;DHT22;40101;53.002;6.488;2022-08-02T12:40:37;27.50;82.50
54192;DHT22;40101;53.002;6.488;2022-08-02T12:43:04;27.30;84.00
54192;DHT22;40101;53.002;6.488;2022-08-02T12:48:35;27.30;85.00
54192;DHT22;40101;53.002;6.488;2022-08-02T12:51:28;27.30;85.20
54192;DHT22;40101;53.002;6.488;2022-08-02T12:54:10;27.10;85.90
54192;DHT22;40101;53.002;6.488;2022-08-02T12:56:37;27.00;86.40
54192;DHT22;40101;53.002;6.488;2022-08-02T12:59:03;26.80;87.10
54192;DHT22;40101;53.002;6.488;2022-08-02T13:01:29;26.70;88.60
54192;DHT22;40101;53.002;6.488;2022-08-02T13:03:56;26.50;90.00
54192;DHT22;40101;53.002;6.488;2022-08-02T13:06:23;26.20;90.50
54192;DHT22;40101;53.002;6.488;2022-08-02T13:08:49;26.20;91.20
54192;DHT22;40101;53.002;6.488;2022-08-02T13:11:16;26.20;91.60
54192;DHT22;40101;53.002;6.488;2022-08-02T13:13:42;26.30;91.90
54192;DHT22;40101;53.002;6.488;2022-08-02T13:16:11;26.30;91.50
54192;DHT22;40101;53.002;6.488;2022-08-02T13:18:37;26.40;91.60
54192;DHT22;40101;53.002;6.488;2022-08-02T13:21:05;26.50;91.70
54192;DHT22;40101;53.002;6.488;2022-08-02T13:23:32;26.70;91.90
54192;DHT22;40101;53.002;6.488;2022-08-02T13:25:59;26.80;92.10
54192;DHT22;40101;53.002;6.488;2022-08-02T13:28:24;26.90;92.30
54192;DHT22;40101;53.002;6.488;2022-08-02T13:30:50;27.10;91.80
54192;DHT22;40101;53.002;6.488;2022-08-02T13:33:16;27.00;90.70
54192;DHT22;40101;53.002;6.488;2022-08-02T13:35:43;27.00;90.70
54192;DHT22;40101;53.002;6.488;2022-08-02T13:38:09;26.90;90.90
54192;DHT22;40101;53.002;6.488;2022-08-02T13:40:35;26.80;91.00
54192;DHT22;40101;53.002;6.488;2022-08-02T13:43:24;26.70;91.50
54192;DHT22;40101;53.002;6.488;2022-08-02T13:45:49;26.50;91.10
54192;DHT22;40101;53.002;6.488;2022-08-02T13:48:15;26.40;91.30
54192;DHT22;40101;53.002;6.488;2022-08-02T13:50:40;26.20;91.60
54192;DHT22;40101;53.002;6.488;2022-08-02T13:53:06;26.20;92.30
54192;DHT22;40101;53.002;6.488;2022-08-02T13:55:32;26.20;93.30
54192;DHT22;40101;53.002;6.488;2022-08-02T13:57:58;26.00;93.70
54192;DHT22;40101;53.002;6.488;2022-08-02T14:00:24;26.00;93.80
54192;DHT22;40101;53.002;6.488;2022-08-02T14:02:49;25.90;93.80
54192;DHT22;40101;53.002;6.488;2022-08-02T14:05:15;25.90;94.10
54192;DHT22;40101;53.002;6.488;2022-08-02T14:07:41;25.80;94.00
54192;DHT22;40101;53.002;6.488;2022-08-02T14:10:07;25.70;94.40
54192;DHT22;40101;53.002;6.488;2022-08-02T14:12:33;25.70;94.70
54192;DHT22;40101;53.002;6.488;2022-08-02T14:14:59;25.70;95.90
54192;DHT22;40101;53.002;6.488;2022-08-02T14:17:24;25.60;95.80
54192;DHT22;40101;53.002;6.488;2022-08-02T14:19:50;25.70;95.90
54192;DHT22;40101;53.002;6.488;2022-08-02T14:22:16;25.80;95.80
54192;DHT22;40101;53.002;6.488;2022-08-02T14:24:42;25.80;95.40
54192;DHT22;40101;53.002;6.488;2022-08-02T14:27:08;26.00;95.50
54192;DHT22;40101;53.002;6.488;2022-08-02T14:29:34;26.10;95.60
54192;DHT22;40101;53.002;6.488;2022-08-02T14:31:59;26.10;95.00
54192;DHT22;40101;53.002;6.488;2022-08-02T14:34:26;26.10;94.60
54192;DHT22;40101;53.002;6.488;2022-08-02T14:36:51;26.20;94.30
54192;DHT22;40101;53.002;6.488;2022-08-02T14:39:17;26.10;94.20
54192;DHT22;40101;53.002;6.488;2022-08-02T14:41:43;26.00;94.20
54192;DHT22;40101;53.002;6.488;2022-08-02T14:44:09;26.10;94.80
54192;DHT22;40101;53.002;6.488;2022-08-02T14:46:39;25.90;94.90
54192;DHT22;40101;53.002;6.488;2022-08-02T14:49:07;25.90;95.40
54192;DHT22;40101;53.002;6.488;2022-08-02T14:51:34;25.80;95.90
54192;DHT22;40101;53.002;6.488;2022-08-02T14:54:01;25.70;96.40
54192;DHT22;40101;53.002;6.488;2022-08-02T14:56:27;25.70;96.60
54192;DHT22;40101;53.002;6.488;2022-08-02T14:58:53;25.80;96.70
54192;DHT22;40101;53.002;6.488;2022-08-02T15:01:19;25.70;97.10
54192;DHT22;40101;53.002;6.488;2022-08-02T15:03:45;25.80;97.00
54192;DHT22;40101;53.002;6.488;2022-08-02T15:06:10;25.80;97.00
54192;DHT22;40101;53.002;6.488;2022-08-02T15:08:36;26.00;96.90
54192;DHT22;40101;53.002;6.488;2022-08-02T15:11:02;26.10;97.20
54192;DHT22;40101;53.002;6.488;2022-08-02T15:13:27;26.20;96.50
54192;DHT22;40101;53.002;6.488;2022-08-02T15:15:53;26.40;95.60
54192;DHT22;40101;53.002;6.488;2022-08-02T15:18:19;26.50;95.20
54192;DHT22;40101;53.002;6.488;2022-08-02T15:20:44;26.60;94.50
54192;DHT22;40101;53.002;6.488;2022-08-02T15:23:13;26.70;94.10
54192;DHT22;40101;53.002;6.488;2022-08-02T15:25:39;26.90;94.40
54192;DHT22;40101;53.002;6.488;2022-08-02T15:28:05;27.00;94.40
54192;DHT22;40101;53.002;6.488;2022-08-02T15:30:34;27.00;93.30
54192;DHT22;40101;53.002;6.488;2022-08-02T15:33:01;27.10;92.60
54192;DHT22;40101;53.002;6.488;2022-08-02T15:35:27;27.00;92.70
54192;DHT22;40101;53.002;6.488;2022-08-02T15:37:53;26.90;92.40
54192;DHT22;40101;53.002;6.488;2022-08-02T15:40:19;26.80;92.70
54192;DHT22;40101;53.002;6.488;2022-08-02T15:42:45;26.80;93.10
54192;DHT22;40101;53.002;6.488;2022-08-02T15:45:11;26.80;92.80
54192;DHT22;40101;53.002;6.488;2022-08-02T15:47:37;26.70;92.50
54192;DHT22;40101;53.002;6.488;2022-08-02T15:50:04;26.70;92.00
54192;DHT22;40101;53.002;6.488;2022-08-02T15:52:30;26.60;92.40
54192;DHT22;40101;53.002;6.488;2022-08-02T15:54:55;26.60;92.20
54192;DHT22;40101;53.002;6.488;2022-08-02T15:57:21;26.60;92.00
54192;DHT22;40101;53.002;6.488;2022-08-02T15:59:47;26.60;91.40
54192;DHT22;40101;53.002;6.488;2022-08-02T16:02:12;26.50;91.70
54192;DHT22;40101;53.002;6.488;2022-08-02T16:04:40;26.50;92.30